GRL233 LOWS-BIKF
Flight info
| Callsign | GRL233 |
|---|---|
| Flight time | N/A |
| Altitude | 38000 |
| Route | INROM DCT SIMBA Y700 NENUM DCT EPTEU L604 RUDNO M736 AKOSI DCT KUGAL DCT KARLI DCT GUNPA/M077F380 DCT ING DCT NASBU NASBU5N |
| Aircraft | B738/M-SDE2E3FGHIRWXY/LB1 |
Departure
| Time | 2026-05-07 17:03 |
|---|---|
| Airport | Salzburg Airport (LOWS) |
Arrival
| Time | N/A |
|---|---|
| Airport | Keflavik International Airport (BIKF) |
| Time | Latitude | Longitude | Altitude | Speed | Heading |
|---|---|---|---|---|---|
| 2026-05-07 17:03 | 47.75297 | 13.07841 | 4352 ft | 179 kts | 48° |
| 2026-05-07 17:03 | 47.76227 | 13.09052 | 4818 ft | 178 kts | 24° |
| 2026-05-07 17:03 | 47.77421 | 13.09572 | 5220 ft | 183 kts | 360° |
| 2026-05-07 17:03 | 47.78640 | 13.09296 | 5763 ft | 177 kts | 332° |
| 2026-05-07 17:04 | 47.79626 | 13.08278 | 6253 ft | 175 kts | 316° |
| 2026-05-07 17:04 | 47.80557 | 13.07090 | 6736 ft | 177 kts | 318° |
| 2026-05-07 17:04 | 47.81583 | 13.06049 | 7129 ft | 186 kts | 332° |
| 2026-05-07 17:04 | 47.82825 | 13.05287 | 7401 ft | 202 kts | 335° |
| 2026-05-07 17:05 | 47.84169 | 13.04473 | 7782 ft | 213 kts | 334° |
| 2026-05-07 17:05 | 47.85560 | 13.03583 | 8119 ft | 226 kts | 336° |
| 2026-05-07 17:05 | 47.87164 | 13.03100 | 8433 ft | 246 kts | 0° |
| 2026-05-07 17:05 | 47.88842 | 13.03885 | 8735 ft | 269 kts | 28° |
| 2026-05-07 17:06 | 47.90376 | 13.05598 | 9049 ft | 285 kts | 37° |
| 2026-05-07 17:06 | 47.92058 | 13.07223 | 9472 ft | 288 kts | 15° |
| 2026-05-07 17:06 | 47.93989 | 13.07526 | 10055 ft | 281 kts | 349° |
| 2026-05-07 17:06 | 47.95929 | 13.06896 | 10438 ft | 290 kts | 342° |
| 2026-05-07 17:07 | 47.97930 | 13.06129 | 10731 ft | 305 kts | 344° |
| 2026-05-07 17:07 | 48.00079 | 13.05484 | 11007 ft | 322 kts | 347° |
| 2026-05-07 17:07 | 48.02345 | 13.04962 | 11294 ft | 337 kts | 349° |
| 2026-05-07 17:07 | 48.04666 | 13.04506 | 11818 ft | 343 kts | 349° |
| 2026-05-07 17:08 | 48.07060 | 13.04058 | 12419 ft | 347 kts | 349° |
| 2026-05-07 17:08 | 48.09463 | 13.03608 | 13017 ft | 351 kts | 349° |
| 2026-05-07 17:08 | 48.11902 | 13.03141 | 13635 ft | 355 kts | 349° |
| 2026-05-07 17:08 | 48.14355 | 13.02663 | 14276 ft | 358 kts | 349° |
| 2026-05-07 17:09 | 48.16838 | 13.02174 | 14910 ft | 361 kts | 349° |
| 2026-05-07 17:09 | 48.19308 | 13.01685 | 15531 ft | 365 kts | 349° |
| 2026-05-07 17:09 | 48.21858 | 13.01178 | 16151 ft | 368 kts | 349° |
| 2026-05-07 17:09 | 48.24410 | 13.00669 | 16762 ft | 372 kts | 349° |
| 2026-05-07 17:10 | 48.26974 | 13.00158 | 17354 ft | 375 kts | 349° |
| 2026-05-07 17:10 | 48.29556 | 12.99643 | 17938 ft | 378 kts | 349° |
| 2026-05-07 17:10 | 48.32187 | 12.99117 | 18521 ft | 382 kts | 349° |
| 2026-05-07 17:10 | 48.34845 | 12.98586 | 19137 ft | 384 kts | 349° |
| 2026-05-07 17:11 | 48.37505 | 12.98054 | 19711 ft | 387 kts | 349° |
| 2026-05-07 17:11 | 48.40181 | 12.97519 | 20282 ft | 390 kts | 349° |
| 2026-05-07 17:11 | 48.42844 | 12.96986 | 20829 ft | 393 kts | 349° |
| 2026-05-07 17:11 | 48.45555 | 12.96442 | 21390 ft | 395 kts | 349° |
| 2026-05-07 17:12 | 48.48299 | 12.95891 | 21927 ft | 398 kts | 349° |
| 2026-05-07 17:12 | 48.51039 | 12.95341 | 22470 ft | 400 kts | 349° |
| 2026-05-07 17:12 | 48.53818 | 12.94782 | 22994 ft | 403 kts | 349° |
| 2026-05-07 17:12 | 48.56596 | 12.94207 | 23515 ft | 405 kts | 349° |
| 2026-05-07 17:13 | 48.59393 | 12.93606 | 24008 ft | 407 kts | 349° |
| 2026-05-07 17:13 | 48.61247 | 12.93200 | 24331 ft | 409 kts | 349° |
| 2026-05-07 17:13 | 48.65007 | 12.92371 | 24919 ft | 413 kts | 349° |
| 2026-05-07 17:13 | 48.67850 | 12.91743 | 25367 ft | 416 kts | 349° |
| 2026-05-07 17:14 | 48.70737 | 12.91107 | 25821 ft | 418 kts | 349° |
| 2026-05-07 17:14 | 48.73620 | 12.90472 | 26239 ft | 421 kts | 349° |
| 2026-05-07 17:14 | 48.76534 | 12.89831 | 26644 ft | 424 kts | 349° |
| 2026-05-07 17:14 | 48.79425 | 12.89195 | 27040 ft | 426 kts | 349° |
| 2026-05-07 17:15 | 48.82406 | 12.88540 | 27438 ft | 429 kts | 349° |
| 2026-05-07 17:15 | 48.85365 | 12.87888 | 27845 ft | 431 kts | 349° |
| 2026-05-07 17:15 | 48.88325 | 12.87237 | 28229 ft | 433 kts | 349° |
| 2026-05-07 17:15 | 48.91301 | 12.86581 | 28596 ft | 436 kts | 349° |
| 2026-05-07 17:16 | 48.94296 | 12.85920 | 28996 ft | 437 kts | 349° |
| 2026-05-07 17:16 | 48.97315 | 12.85254 | 29336 ft | 440 kts | 349° |
| 2026-05-07 17:16 | 49.00335 | 12.84586 | 29642 ft | 443 kts | 349° |
| 2026-05-07 17:16 | 49.03403 | 12.83906 | 30023 ft | 444 kts | 349° |
| 2026-05-07 17:17 | 49.06487 | 12.83222 | 30342 ft | 447 kts | 349° |
| 2026-05-07 17:17 | 49.09546 | 12.82504 | 30620 ft | 449 kts | 348° |
| 2026-05-07 17:17 | 49.12581 | 12.81460 | 30911 ft | 450 kts | 342° |
| 2026-05-07 17:17 | 49.15549 | 12.79931 | 31144 ft | 451 kts | 336° |
| 2026-05-07 17:18 | 49.18372 | 12.77931 | 31342 ft | 452 kts | 330° |
| 2026-05-07 17:18 | 49.21086 | 12.75428 | 31568 ft | 452 kts | 324° |
| 2026-05-07 17:18 | 49.23569 | 12.72527 | 31813 ft | 451 kts | 318° |
| 2026-05-07 17:18 | 49.25822 | 12.69241 | 32106 ft | 449 kts | 312° |
| 2026-05-07 17:19 | 49.27860 | 12.65563 | 32357 ft | 448 kts | 306° |
| 2026-05-07 17:19 | 49.29626 | 12.61718 | 32601 ft | 448 kts | 303° |
| 2026-05-07 17:19 | 49.31428 | 12.57786 | 32845 ft | 448 kts | 306° |
| 2026-05-07 17:19 | 49.33422 | 12.54120 | 33074 ft | 449 kts | 311° |
| 2026-05-07 17:20 | 49.35659 | 12.50781 | 33289 ft | 451 kts | 317° |
| 2026-05-07 17:20 | 49.38070 | 12.47723 | 33494 ft | 452 kts | 320° |
| 2026-05-07 17:20 | 49.40548 | 12.44818 | 33691 ft | 453 kts | 321° |
| 2026-05-07 17:20 | 49.43092 | 12.41902 | 33874 ft | 454 kts | 321° |
| 2026-05-07 17:21 | 49.45618 | 12.39006 | 34084 ft | 454 kts | 321° |
| 2026-05-07 17:21 | 49.48138 | 12.36088 | 34306 ft | 454 kts | 321° |
| 2026-05-07 17:21 | 49.50645 | 12.33148 | 34525 ft | 454 kts | 320° |
| 2026-05-07 17:21 | 49.53160 | 12.30160 | 34753 ft | 454 kts | 320° |
| 2026-05-07 17:22 | 49.55640 | 12.27185 | 34971 ft | 454 kts | 320° |
| 2026-05-07 17:22 | 49.58137 | 12.24163 | 35165 ft | 455 kts | 319° |
| 2026-05-07 17:22 | 49.60609 | 12.21152 | 35380 ft | 454 kts | 319° |
| 2026-05-07 17:22 | 49.63064 | 12.18147 | 35581 ft | 455 kts | 319° |
| 2026-05-07 17:23 | 49.65547 | 12.15097 | 35769 ft | 455 kts | 319° |
| 2026-05-07 17:23 | 49.68010 | 12.12114 | 35957 ft | 455 kts | 320° |
| 2026-05-07 17:23 | 49.70579 | 12.09242 | 36129 ft | 456 kts | 324° |
| 2026-05-07 17:23 | 49.73283 | 12.06713 | 36297 ft | 457 kts | 328° |
| 2026-05-07 17:24 | 49.76092 | 12.04395 | 36439 ft | 459 kts | 331° |
| 2026-05-07 17:24 | 49.78978 | 12.02187 | 36593 ft | 460 kts | 332° |
| 2026-05-07 17:24 | 49.81855 | 12.00082 | 36727 ft | 461 kts | 333° |
| 2026-05-07 17:24 | 49.84740 | 11.98006 | 36878 ft | 461 kts | 333° |
| 2026-05-07 17:25 | 49.87666 | 11.95901 | 37013 ft | 461 kts | 333° |
| 2026-05-07 17:25 | 49.90590 | 11.93787 | 37153 ft | 462 kts | 333° |
| 2026-05-07 17:25 | 49.93487 | 11.91676 | 37273 ft | 462 kts | 333° |
| 2026-05-07 17:25 | 49.96379 | 11.89553 | 37398 ft | 462 kts | 333° |
| 2026-05-07 17:26 | 49.99265 | 11.87422 | 37512 ft | 463 kts | 333° |
| 2026-05-07 17:26 | 50.02191 | 11.85249 | 37643 ft | 463 kts | 333° |
| 2026-05-07 17:26 | 50.05083 | 11.83092 | 37767 ft | 463 kts | 332° |
| 2026-05-07 17:26 | 50.07989 | 11.80918 | 37899 ft | 463 kts | 332° |
| 2026-05-07 17:27 | 50.13744 | 11.76596 | 38007 ft | 463 kts | 332° |
| 2026-05-07 17:27 | 50.19570 | 11.72201 | 38008 ft | 466 kts | 332° |
| 2026-05-07 17:28 | 50.25403 | 11.67789 | 38015 ft | 467 kts | 332° |
| 2026-05-07 17:28 | 50.31258 | 11.63348 | 38015 ft | 469 kts | 332° |
| 2026-05-07 17:29 | 50.37122 | 11.58888 | 38016 ft | 470 kts | 332° |
| 2026-05-07 17:29 | 50.42995 | 11.54410 | 38012 ft | 471 kts | 332° |
| 2026-05-07 17:30 | 50.48893 | 11.49900 | 38003 ft | 472 kts | 332° |
| 2026-05-07 17:30 | 50.54807 | 11.45366 | 38006 ft | 472 kts | 332° |
| 2026-05-07 17:31 | 50.60714 | 11.40824 | 38013 ft | 472 kts | 333° |
| 2026-05-07 17:31 | 50.66586 | 11.36296 | 38020 ft | 472 kts | 333° |
| 2026-05-07 17:32 | 50.72483 | 11.31735 | 38023 ft | 472 kts | 332° |
| 2026-05-07 17:32 | 50.77388 | 11.27932 | 38029 ft | 472 kts | 332° |